createdAt,value
2018-05-26T00:00:12.630Z,11.27
2018-05-26T00:01:16.017Z,12.80
2018-05-26T00:02:19.336Z,13.00
2018-05-26T00:03:22.717Z,12.65
2018-05-26T00:04:26.059Z,16.85
2018-05-26T00:05:29.383Z,12.30
2018-05-26T00:06:32.708Z,13.53
2018-05-26T00:07:36.046Z,12.20
2018-05-26T00:08:39.423Z,15.20
2018-05-26T00:09:42.768Z,13.35
2018-05-26T00:10:46.114Z,12.48
2018-05-26T00:11:49.523Z,13.77
2018-05-26T00:12:52.851Z,13.23
2018-05-26T00:13:56.219Z,12.43
2018-05-26T00:14:59.538Z,13.33
2018-05-26T00:16:02.876Z,12.37
2018-05-26T00:17:06.218Z,13.73
2018-05-26T00:18:09.567Z,12.27
2018-05-26T00:19:12.947Z,13.17
2018-05-26T00:20:16.281Z,11.23
2018-05-26T00:21:19.615Z,11.15
2018-05-26T00:22:24.606Z,11.97
2018-05-26T00:23:27.928Z,14.25
2018-05-26T00:24:31.306Z,14.30
2018-05-26T00:25:34.688Z,14.45
2018-05-26T00:26:37.964Z,17.50
2018-05-26T00:27:41.295Z,13.55
2018-05-26T00:28:44.634Z,13.13
2018-05-26T00:29:48.039Z,11.35
2018-05-26T00:30:51.369Z,13.05
2018-05-26T00:31:54.711Z,14.73
2018-05-26T00:32:58.051Z,11.35
2018-05-26T00:34:01.366Z,13.35
2018-05-26T00:35:04.771Z,16.03
2018-05-26T00:36:08.102Z,12.17
2018-05-26T00:37:11.828Z,11.38
2018-05-26T00:38:15.143Z,12.73
2018-05-26T00:39:18.514Z,12.35
2018-05-26T00:40:22.111Z,11.83
2018-05-26T00:41:25.456Z,13.95
2018-05-26T00:42:28.807Z,11.77
2018-05-26T00:43:32.148Z,14.93
2018-05-26T00:44:35.492Z,12.80
2018-05-26T00:45:39.072Z,13.07
2018-05-26T00:46:42.590Z,15.50
2018-05-26T00:47:45.914Z,14.52
2018-05-26T00:48:49.255Z,13.02
2018-05-26T00:49:52.578Z,14.23
2018-05-26T00:50:55.962Z,12.05
2018-05-26T00:51:59.294Z,13.23
2018-05-26T00:53:02.623Z,11.32
2018-05-26T00:54:06.071Z,12.05
2018-05-26T00:55:09.475Z,12.75
2018-05-26T00:56:12.854Z,13.15
2018-05-26T00:57:16.183Z,17.60
2018-05-26T00:58:19.586Z,12.27
2018-05-26T00:59:23.030Z,12.90
2018-05-26T01:00:26.369Z,16.50
2018-05-26T01:01:29.735Z,13.85
2018-05-26T01:02:33.055Z,12.77
2018-05-26T01:03:36.391Z,12.90
2018-05-26T01:04:39.725Z,14.13
2018-05-26T01:05:43.063Z,12.25
2018-05-26T01:06:46.471Z,14.43
2018-05-26T01:07:49.799Z,13.38
2018-05-26T01:08:53.121Z,12.65
2018-05-26T01:09:56.463Z,12.25
2018-05-26T01:10:59.796Z,13.62
2018-05-26T01:12:03.160Z,12.02
2018-05-26T01:13:06.488Z,13.13
2018-05-26T01:14:09.824Z,18.23
2018-05-26T01:15:13.174Z,13.02
2018-05-26T01:16:16.562Z,15.32
2018-05-26T01:17:19.931Z,13.38
2018-05-26T01:18:23.262Z,13.40
2018-05-26T01:19:26.586Z,13.60
2018-05-26T01:20:29.916Z,13.20
2018-05-26T01:21:33.556Z,13.45
2018-05-26T01:22:36.925Z,14.52
2018-05-26T01:23:40.238Z,13.98
2018-05-26T01:24:43.611Z,14.65
2018-05-26T01:25:46.960Z,14.82
2018-05-26T01:26:50.294Z,12.68
2018-05-26T01:27:53.655Z,13.75
2018-05-26T01:28:56.980Z,13.82
2018-05-26T01:30:00.324Z,12.07
2018-05-26T01:31:03.650Z,13.07
2018-05-26T01:32:06.977Z,14.40
2018-05-26T01:33:10.358Z,14.02
2018-05-26T01:34:13.690Z,14.25
2018-05-26T01:35:17.011Z,14.95
2018-05-26T01:36:20.625Z,17.92
2018-05-26T01:37:23.942Z,16.08
2018-05-26T01:38:27.579Z,17.70
2018-05-26T01:39:30.902Z,13.90
2018-05-26T01:40:34.602Z,13.60
2018-05-26T01:41:37.946Z,13.32
2018-05-26T01:42:41.266Z,12.95
2018-05-26T01:43:44.645Z,16.15
2018-05-26T01:44:47.975Z,16.05
2018-05-26T01:45:51.343Z,13.62
2018-05-26T01:46:54.776Z,15.18
2018-05-26T01:47:58.095Z,13.82
2018-05-26T01:49:01.452Z,16.80
2018-05-26T01:50:04.779Z,13.77
2018-05-26T01:51:08.119Z,14.15
2018-05-26T01:52:11.446Z,13.43
2018-05-26T01:53:14.799Z,14.20
2018-05-26T01:54:18.156Z,13.77
2018-05-26T01:55:21.483Z,13.80
2018-05-26T01:56:24.833Z,12.90
2018-05-26T01:57:28.162Z,13.35
2018-05-26T01:58:31.515Z,13.65
2018-05-26T01:59:34.889Z,13.20
2018-05-26T02:00:38.220Z,16.87
2018-05-26T02:01:41.559Z,14.87
2018-05-26T02:02:44.907Z,13.82
2018-05-26T02:03:48.259Z,12.55
2018-05-26T02:04:51.627Z,14.25
2018-05-26T02:05:54.955Z,14.95
2018-05-26T02:06:58.372Z,14.68
2018-05-26T02:08:01.714Z,13.60
2018-05-26T02:09:05.048Z,14.35
2018-05-26T02:10:08.524Z,14.63
2018-05-26T02:11:11.869Z,15.05
2018-05-26T02:12:15.221Z,11.60
2018-05-26T02:13:18.534Z,12.50
2018-05-26T02:14:21.968Z,18.27
2018-05-26T02:15:25.319Z,15.90
2018-05-26T02:16:28.653Z,14.20
2018-05-26T02:17:31.975Z,12.98
2018-05-26T02:18:35.331Z,14.23
2018-05-26T02:19:38.668Z,14.07
2018-05-26T02:20:42.038Z,16.80
2018-05-26T02:21:45.381Z,16.85
2018-05-26T02:22:48.727Z,13.23
2018-05-26T02:23:52.065Z,14.05
2018-05-26T02:24:55.395Z,14.20
2018-05-26T02:25:58.769Z,13.38
2018-05-26T02:27:02.112Z,13.10
2018-05-26T02:28:05.431Z,14.35
2018-05-26T02:29:08.781Z,13.00
2018-05-26T02:30:12.105Z,15.75
2018-05-26T02:31:15.633Z,12.90
2018-05-26T02:32:18.979Z,15.38
2018-05-26T02:33:22.325Z,15.52
2018-05-26T02:34:25.649Z,13.00
2018-05-26T02:35:29.055Z,16.12
2018-05-26T02:36:32.415Z,14.73
2018-05-26T02:37:35.758Z,13.43
2018-05-26T02:38:39.067Z,14.65
2018-05-26T02:39:42.407Z,13.23
2018-05-26T02:40:45.865Z,12.75
2018-05-26T02:41:49.238Z,13.68
2018-05-26T02:42:52.588Z,12.30
2018-05-26T02:43:55.903Z,14.35
2018-05-26T02:44:59.222Z,12.37
2018-05-26T02:46:02.554Z,16.08
2018-05-26T02:47:05.951Z,12.18
2018-05-26T02:48:09.278Z,17.85
2018-05-26T02:49:12.617Z,11.82
2018-05-26T02:50:15.947Z,12.52
2018-05-26T02:51:19.291Z,12.43
2018-05-26T02:52:22.634Z,14.45
2018-05-26T02:53:25.983Z,13.77
2018-05-26T02:54:29.322Z,12.85
2018-05-26T02:55:32.641Z,13.35
2018-05-26T02:56:35.966Z,12.60
2018-05-26T02:57:39.496Z,12.05
2018-05-26T02:58:42.806Z,12.88
2018-05-26T02:59:46.175Z,14.20
2018-05-26T03:00:49.686Z,11.95
2018-05-26T03:01:53.035Z,14.80
2018-05-26T03:02:56.410Z,18.17
2018-05-26T03:03:59.196Z,15.13
2018-05-26T03:05:08.027Z,14.02
2018-05-26T03:06:16.770Z,13.23
2018-05-26T03:07:25.683Z,12.40
2018-05-26T03:08:34.895Z,19.00
2018-05-26T03:09:43.797Z,16.23
2018-05-26T03:10:52.652Z,16.30
2018-05-26T03:12:01.605Z,15.25
2018-05-26T03:13:10.479Z,12.20
2018-05-26T03:14:19.402Z,12.30
2018-05-26T03:15:22.171Z,12.85
2018-05-26T03:16:40.375Z,13.88
2018-05-26T03:17:48.141Z,13.77
2018-05-26T03:18:51.479Z,14.90
2018-05-26T03:19:54.834Z,13.57
2018-05-26T03:20:58.179Z,12.45
2018-05-26T03:22:01.502Z,13.95
2018-05-26T03:23:04.853Z,15.05
2018-05-26T03:24:08.175Z,14.80
2018-05-26T03:25:11.519Z,15.35
2018-05-26T03:26:14.853Z,14.60
2018-05-26T03:27:18.188Z,13.15
2018-05-26T03:28:21.572Z,13.05
2018-05-26T03:29:24.875Z,15.15
2018-05-26T03:30:28.240Z,14.95
2018-05-26T03:31:31.553Z,13.57
2018-05-26T03:32:34.890Z,15.15
2018-05-26T03:33:38.199Z,13.95
2018-05-26T03:34:41.517Z,14.95
2018-05-26T03:35:44.870Z,14.93
2018-05-26T03:36:48.198Z,17.92
2018-05-26T03:37:51.533Z,15.02
2018-05-26T03:38:54.868Z,14.68
2018-05-26T03:39:58.227Z,14.65
2018-05-26T03:41:01.750Z,13.90
2018-05-26T03:42:05.077Z,16.20
2018-05-26T03:43:08.392Z,12.90
2018-05-26T03:44:11.732Z,13.48
2018-05-26T03:45:15.337Z,14.13
2018-05-26T03:46:18.735Z,13.60
2018-05-26T03:47:22.060Z,12.75
2018-05-26T03:48:25.513Z,15.07
2018-05-26T03:49:28.844Z,11.95
2018-05-26T03:50:32.178Z,13.32
2018-05-26T03:51:35.568Z,16.05
2018-05-26T03:52:38.900Z,12.77
2018-05-26T03:53:42.238Z,14.40
2018-05-26T03:56:34.238Z,18.33
2018-05-26T03:57:49.455Z,13.90
2018-05-26T03:59:04.502Z,15.57
2018-05-26T04:00:10.583Z,12.32
2018-05-26T04:01:13.946Z,15.38
2018-05-26T04:02:17.282Z,14.57
2018-05-26T04:03:20.630Z,17.35
2018-05-26T04:04:23.958Z,15.05
2018-05-26T04:05:27.278Z,15.32
2018-05-26T04:06:30.823Z,15.40
2018-05-26T04:07:34.183Z,16.87
2018-05-26T04:08:37.494Z,14.15
2018-05-26T04:09:40.823Z,14.80
2018-05-26T04:10:44.161Z,15.43
2018-05-26T04:11:47.497Z,15.30
2018-05-26T04:12:51.059Z,17.98
2018-05-26T04:13:54.477Z,17.60
2018-05-26T04:14:57.807Z,15.88
2018-05-26T04:16:01.130Z,15.20
2018-05-26T04:17:04.476Z,14.40
2018-05-26T04:18:07.795Z,15.68
2018-05-26T04:19:11.151Z,15.20
2018-05-26T04:20:14.484Z,16.15
2018-05-26T04:22:27.518Z,15.25
2018-05-26T04:23:30.866Z,16.67
2018-05-26T04:24:37.754Z,19.25
2018-05-26T04:25:41.104Z,19.35
2018-05-26T04:26:44.419Z,16.08
2018-05-26T04:27:47.772Z,17.37
2018-05-26T04:28:51.083Z,17.45
2018-05-26T04:29:54.438Z,16.27
2018-05-26T04:30:57.751Z,20.30
2018-05-26T04:32:01.113Z,16.05
2018-05-26T04:33:04.461Z,16.20
2018-05-26T04:34:07.786Z,20.05
2018-05-26T04:35:11.146Z,17.05
2018-05-26T04:36:14.482Z,18.92
2018-05-26T04:37:17.839Z,15.07
2018-05-26T04:38:21.157Z,20.58
2018-05-26T04:39:24.497Z,15.93
2018-05-26T04:40:28.226Z,18.10
2018-05-26T04:41:31.864Z,14.10
2018-05-26T04:42:35.182Z,17.33
2018-05-26T04:43:38.510Z,15.55
2018-05-26T04:44:41.844Z,21.00
2018-05-26T04:45:45.459Z,18.08
2018-05-26T04:46:48.808Z,17.00
2018-05-26T04:47:52.134Z,15.75
2018-05-26T04:48:55.459Z,16.80
2018-05-26T04:49:58.780Z,23.20
2018-05-26T04:51:02.167Z,16.67
2018-05-26T04:52:05.482Z,17.33
2018-05-26T04:53:08.831Z,16.83
2018-05-26T04:54:12.140Z,16.17
2018-05-26T04:55:15.558Z,15.90
2018-05-26T04:56:18.907Z,15.88
2018-05-26T04:57:22.252Z,15.98
2018-05-26T04:58:25.593Z,18.67
2018-05-26T04:59:28.954Z,15.65
2018-05-26T05:00:32.308Z,16.65
2018-05-26T05:01:35.646Z,17.67
2018-05-26T05:02:38.974Z,20.58
2018-05-26T05:03:42.300Z,16.50
2018-05-26T05:04:45.645Z,18.55
2018-05-26T05:05:48.975Z,18.65
2018-05-26T05:06:52.334Z,15.82
2018-05-26T05:07:55.707Z,20.33
2018-05-26T05:08:59.026Z,14.85
2018-05-26T05:10:02.356Z,16.00
2018-05-26T05:11:05.683Z,18.83
2018-05-26T05:12:09.045Z,15.15
2018-05-26T05:13:12.372Z,23.42
2018-05-26T05:14:15.703Z,15.77
2018-05-26T05:15:19.030Z,18.48
2018-05-26T05:16:22.356Z,16.27
2018-05-26T05:17:25.710Z,15.02
2018-05-26T05:18:29.023Z,17.40
2018-05-26T05:19:32.361Z,14.65
2018-05-26T05:20:35.690Z,14.50
2018-05-26T05:21:39.021Z,16.50
2018-05-26T05:22:42.388Z,13.32
2018-05-26T05:23:45.696Z,12.37
2018-05-26T05:24:49.023Z,15.95
2018-05-26T05:25:52.361Z,15.43
2018-05-26T05:26:55.690Z,13.77
2018-05-26T05:27:59.051Z,15.30
2018-05-26T05:29:02.362Z,14.63
2018-05-26T05:30:05.705Z,14.30
2018-05-26T05:31:09.010Z,14.00
2018-05-26T05:32:12.566Z,12.43
2018-05-26T05:33:15.908Z,11.70
2018-05-26T05:34:19.244Z,13.17
2018-05-26T05:35:22.615Z,13.63
2018-05-26T05:36:25.935Z,11.17
2018-05-26T05:37:29.308Z,12.53
2018-05-26T05:38:32.757Z,13.07
2018-05-26T05:39:36.074Z,11.83
2018-05-26T05:40:39.492Z,15.43
2018-05-26T05:41:43.466Z,11.40
2018-05-26T05:42:46.788Z,17.03
2018-05-26T05:43:50.151Z,13.07
2018-05-26T05:44:53.471Z,11.93
2018-05-26T05:45:56.785Z,15.97
2018-05-26T05:47:00.152Z,14.50
2018-05-26T05:48:03.471Z,14.27
2018-05-26T05:49:06.834Z,11.10
2018-05-26T05:50:10.152Z,12.90
2018-05-26T05:51:13.609Z,14.03
2018-05-26T05:52:16.938Z,13.07
2018-05-26T05:53:20.256Z,12.50
2018-05-26T05:54:23.622Z,11.90
2018-05-26T05:55:26.955Z,13.60
2018-05-26T05:56:30.283Z,10.93
2018-05-26T05:57:33.606Z,12.47
2018-05-26T05:58:36.927Z,12.20
2018-05-26T05:59:40.277Z,11.07
2018-05-26T06:00:43.587Z,10.50
2018-05-26T06:01:46.952Z,10.77
2018-05-26T06:02:50.266Z,13.17
2018-05-26T06:03:53.582Z,10.30
2018-05-26T06:04:56.920Z,13.17
2018-05-26T06:06:00.234Z,14.07
2018-05-26T06:07:03.555Z,10.60
2018-05-26T06:08:06.874Z,10.60
2018-05-26T06:09:10.174Z,10.10
2018-05-26T06:10:13.507Z,11.00
2018-05-26T06:11:16.830Z,10.23
2018-05-26T06:12:20.243Z,10.00
2018-05-26T06:13:23.585Z,10.17
2018-05-26T06:14:26.914Z,12.30
2018-05-26T06:15:30.288Z,10.03
2018-05-26T06:16:33.613Z,9.97
2018-05-26T06:17:36.939Z,10.10
2018-05-26T06:18:40.272Z,9.93
2018-05-26T06:19:43.651Z,11.90
2018-05-26T06:20:47.065Z,12.50
2018-05-26T06:21:50.382Z,12.90
2018-05-26T06:22:53.699Z,10.50
2018-05-26T06:23:57.035Z,12.13
2018-05-26T06:25:00.362Z,11.57
2018-05-26T06:26:03.724Z,11.00
2018-05-26T06:27:07.046Z,11.13
2018-05-26T06:28:10.364Z,9.83
2018-05-26T06:29:13.691Z,9.40
2018-05-26T06:30:16.989Z,12.00
2018-05-26T06:31:20.324Z,10.27
2018-05-26T06:32:23.653Z,10.20
2018-05-26T06:33:26.967Z,11.73
2018-05-26T06:34:30.275Z,10.43
2018-05-26T06:35:33.584Z,9.80
2018-05-26T06:36:36.964Z,8.77
2018-05-26T06:37:40.285Z,8.40
2018-05-26T06:38:43.588Z,12.40
2018-05-26T06:39:46.906Z,12.80
2018-05-26T06:40:50.279Z,8.23
2018-05-26T06:41:53.930Z,9.07
2018-05-26T06:42:57.313Z,8.97
2018-05-26T06:44:00.658Z,9.33
2018-05-26T06:45:03.957Z,8.57
2018-05-26T06:46:07.299Z,9.83
2018-05-26T06:47:10.664Z,9.30
2018-05-26T06:48:14.009Z,8.63
2018-05-26T06:49:17.330Z,12.50
2018-05-26T06:50:20.686Z,8.93
2018-05-26T06:51:24.041Z,9.37
2018-05-26T06:52:27.337Z,9.30
2018-05-26T06:53:30.626Z,9.13
2018-05-26T06:54:33.950Z,8.27
2018-05-26T06:55:37.262Z,11.10
2018-05-26T06:56:40.573Z,10.63
2018-05-26T06:57:44.007Z,10.90
2018-05-26T06:58:47.319Z,8.63
2018-05-26T06:59:50.623Z,8.57
2018-05-26T07:00:54.164Z,9.50
2018-05-26T07:01:57.479Z,8.63
2018-05-26T07:03:00.838Z,10.10
2018-05-26T07:04:04.143Z,7.77
2018-05-26T07:05:07.456Z,8.17
2018-05-26T07:06:10.851Z,8.80
2018-05-26T07:07:14.150Z,10.40
2018-05-26T07:08:17.480Z,8.07
2018-05-26T07:09:20.791Z,10.63
2018-05-26T07:10:24.131Z,8.00
2018-05-26T07:11:27.456Z,10.43
2018-05-26T07:12:30.764Z,10.30
2018-05-26T07:13:34.150Z,8.63
2018-05-26T07:14:37.476Z,14.27
2018-05-26T07:15:40.902Z,8.10
2018-05-26T07:16:44.207Z,8.60
2018-05-26T07:17:47.531Z,8.57
2018-05-26T07:18:50.927Z,8.77
2018-05-26T07:19:54.230Z,7.93
2018-05-26T07:20:57.587Z,8.10
2018-05-26T07:22:00.928Z,9.83
2018-05-26T07:23:04.229Z,8.20
2018-05-26T07:24:07.563Z,8.00
2018-05-26T07:25:10.866Z,10.33
2018-05-26T07:26:14.170Z,7.30
2018-05-26T07:27:17.500Z,8.27
2018-05-26T07:28:21.007Z,7.80
2018-05-26T07:29:24.430Z,7.93
2018-05-26T07:30:27.718Z,7.30
2018-05-26T07:31:31.045Z,10.47
2018-05-26T07:32:34.383Z,8.80
2018-05-26T07:33:37.709Z,8.43
2018-05-26T07:34:41.110Z,9.03
2018-05-26T07:35:44.470Z,8.60
2018-05-26T07:36:47.777Z,8.60
2018-05-26T07:37:51.075Z,9.27
2018-05-26T07:38:54.392Z,7.83
2018-05-26T07:39:57.711Z,8.03
2018-05-26T07:41:01.088Z,9.47
2018-05-26T07:42:04.950Z,9.37
2018-05-26T07:43:08.472Z,8.50
2018-05-26T07:44:11.766Z,10.37
2018-05-26T07:45:15.323Z,8.13
2018-05-26T07:46:18.760Z,11.03
2018-05-26T07:47:22.066Z,7.83
2018-05-26T07:48:25.410Z,8.60
2018-05-26T07:49:28.724Z,9.47
2018-05-26T07:50:32.159Z,9.47
2018-05-26T07:51:35.476Z,13.30
2018-05-26T07:52:38.798Z,31.77
2018-05-26T07:53:42.121Z,23.20
2018-05-26T07:54:45.461Z,18.70
2018-05-26T07:55:49.008Z,14.13
2018-05-26T07:56:52.323Z,16.30
2018-05-26T07:57:55.682Z,21.67
2018-05-26T07:58:59.009Z,26.20
2018-05-26T08:00:02.324Z,15.10
2018-05-26T08:01:05.905Z,8.93
2018-05-26T08:02:09.219Z,8.50
2018-05-26T08:03:12.567Z,9.00
2018-05-26T08:04:15.889Z,9.47
2018-05-26T08:05:19.190Z,9.37
2018-05-26T08:06:22.617Z,9.03
2018-05-26T08:07:25.923Z,8.23
2018-05-26T08:08:29.247Z,9.47
2018-05-26T08:09:32.579Z,9.63
2018-05-26T08:10:35.870Z,8.97
2018-05-26T08:11:39.195Z,9.73
2018-05-26T08:12:42.503Z,7.37
2018-05-26T08:13:45.821Z,7.73
2018-05-26T08:14:49.141Z,7.30
2018-05-26T08:15:52.460Z,11.33
2018-05-26T08:16:55.794Z,8.50
2018-05-26T08:17:59.144Z,7.87
2018-05-26T08:19:02.438Z,8.70
2018-05-26T08:20:05.736Z,8.00
2018-05-26T08:21:09.051Z,7.70
2018-05-26T08:22:12.463Z,8.00
2018-05-26T08:23:15.759Z,8.53
2018-05-26T08:24:19.062Z,7.80
2018-05-26T08:25:22.379Z,7.80
2018-05-26T08:26:25.718Z,7.83
2018-05-26T08:27:29.067Z,7.47
2018-05-26T08:28:32.381Z,7.73
2018-05-26T08:29:35.698Z,11.87
2018-05-26T08:30:39.036Z,7.63
2018-05-26T08:31:42.350Z,10.10
2018-05-26T08:32:45.706Z,8.30
2018-05-26T08:33:49.095Z,9.80
2018-05-26T08:34:52.379Z,8.07
2018-05-26T08:35:55.941Z,7.27
2018-05-26T08:36:59.258Z,8.93
2018-05-26T08:38:02.585Z,7.03
2018-05-26T08:39:06.006Z,7.30
2018-05-26T08:40:09.354Z,16.30
2018-05-26T08:41:12.724Z,14.93
2018-05-26T08:42:16.207Z,11.73
2018-05-26T08:43:19.565Z,15.53
2018-05-26T08:44:22.874Z,7.60
2018-05-26T08:45:26.215Z,8.10
2018-05-26T08:46:29.516Z,6.97
2018-05-26T08:47:32.826Z,7.20
2018-05-26T08:48:36.215Z,8.13
2018-05-26T08:49:39.529Z,8.63
2018-05-26T08:50:42.842Z,9.23
2018-05-26T08:51:46.154Z,7.57
2018-05-26T08:52:49.485Z,8.60
2018-05-26T08:53:53.104Z,8.40
2018-05-26T08:54:56.497Z,7.83
2018-05-26T08:55:59.730Z,7.50
2018-05-26T08:57:03.090Z,9.00
2018-05-26T08:58:06.385Z,8.10
2018-05-26T08:59:09.920Z,10.77
2018-05-26T09:00:13.247Z,7.43
2018-05-26T09:01:16.555Z,37.90
2018-05-26T09:02:19.940Z,16.17
2018-05-26T09:03:23.213Z,7.57
2018-05-26T09:04:26.551Z,7.30
2018-05-26T09:05:29.875Z,13.97
2018-05-26T09:06:33.185Z,7.83
2018-05-26T09:07:36.501Z,7.03
2018-05-26T09:08:39.825Z,8.97
2018-05-26T09:09:43.154Z,8.63
2018-05-26T09:10:46.471Z,20.33
2018-05-26T09:11:49.789Z,23.97
2018-05-26T09:12:53.134Z,13.97
2018-05-26T09:13:56.451Z,16.07
2018-05-26T09:15:00.032Z,30.67
2018-05-26T09:16:03.295Z,10.20
2018-05-26T09:17:06.627Z,10.63
2018-05-26T09:18:10.550Z,8.77
2018-05-26T09:19:13.877Z,13.70
2018-05-26T09:20:17.249Z,32.47
2018-05-26T09:21:20.562Z,11.10
2018-05-26T09:22:23.868Z,7.93
2018-05-26T09:23:27.176Z,9.10
2018-05-26T09:24:30.487Z,27.83
2018-05-26T09:25:33.900Z,30.37
2018-05-26T09:26:37.171Z,21.50
2018-05-26T09:27:40.516Z,7.00
2018-05-26T09:28:44.077Z,7.60
2018-05-26T09:29:47.386Z,9.13
2018-05-26T09:30:50.847Z,8.33
2018-05-26T09:31:54.259Z,11.43
2018-05-26T09:32:57.566Z,11.00
2018-05-26T09:34:00.891Z,13.73
2018-05-26T09:35:04.232Z,6.60
2018-05-26T09:36:07.551Z,8.37
2018-05-26T09:37:10.936Z,6.40
2018-05-26T09:38:14.315Z,14.23
2018-05-26T09:39:17.696Z,20.53
2018-05-26T09:40:21.002Z,9.10
2018-05-26T09:41:24.398Z,10.37
2018-05-26T09:42:28.035Z,12.07
2018-05-26T09:43:31.366Z,11.60
2018-05-26T09:44:34.715Z,6.10
2018-05-26T09:45:38.047Z,7.37
2018-05-26T09:46:41.401Z,6.33
2018-05-26T09:47:44.695Z,5.97
2018-05-26T09:48:47.994Z,5.60
2018-05-26T09:49:51.335Z,6.40
2018-05-26T09:50:54.651Z,8.10
2018-05-26T09:51:57.992Z,5.80
2018-05-26T09:53:01.316Z,6.03
2018-05-26T09:54:04.642Z,6.03
2018-05-26T09:55:07.946Z,11.90
2018-05-26T09:56:11.264Z,6.50
2018-05-26T09:57:14.602Z,5.93
2018-05-26T09:58:17.917Z,5.80
2018-05-26T09:59:21.222Z,6.43
2018-05-26T10:00:24.678Z,9.40
2018-05-26T10:01:28.003Z,5.10
2018-05-26T10:02:31.375Z,5.63
2018-05-26T10:03:34.708Z,5.57
2018-05-26T10:04:38.652Z,6.33
2018-05-26T10:05:41.942Z,6.43
2018-05-26T10:06:45.263Z,6.10
2018-05-26T10:07:48.624Z,8.97
2018-05-26T10:08:51.926Z,6.20
2018-05-26T10:09:55.227Z,5.57
2018-05-26T10:10:58.574Z,9.77
2018-05-26T10:12:01.873Z,9.30
2018-05-26T10:13:05.204Z,6.40
2018-05-26T10:14:08.505Z,7.43
2018-05-26T10:15:11.812Z,8.40
2018-05-26T10:16:15.125Z,10.93
2018-05-26T10:17:18.482Z,7.20
2018-05-26T10:18:21.856Z,5.90
2018-05-26T10:19:25.302Z,9.73
2018-05-26T10:20:28.782Z,40.90
2018-05-26T10:21:32.093Z,5.60
2018-05-26T10:22:35.410Z,10.93
2018-05-26T10:23:39.035Z,8.47
2018-05-26T10:24:42.333Z,6.00
2018-05-26T10:25:45.642Z,6.30
2018-05-26T10:26:49.005Z,6.20
2018-05-26T10:27:52.332Z,6.30
2018-05-26T10:28:56.087Z,6.20
2018-05-26T10:29:59.473Z,23.13
2018-05-26T10:31:02.807Z,10.80
2018-05-26T10:32:06.185Z,6.90
2018-05-26T10:33:09.478Z,6.20
2018-05-26T10:34:12.891Z,5.73
2018-05-26T10:35:16.261Z,10.90
2018-05-26T10:36:19.578Z,8.90
2018-05-26T10:37:22.905Z,5.47
2018-05-26T10:38:26.226Z,6.70
2018-05-26T10:39:29.588Z,6.40
2018-05-26T10:40:32.902Z,6.20
2018-05-26T10:41:36.249Z,7.00
2018-05-26T10:42:40.666Z,7.53
2018-05-26T10:43:43.978Z,6.10
2018-05-26T10:44:47.421Z,7.40
2018-05-26T10:46:02.398Z,6.07
2018-05-26T10:47:05.765Z,5.60
2018-05-26T10:48:09.042Z,6.00
2018-05-26T10:49:12.347Z,7.10
2018-05-26T10:50:15.962Z,6.53
2018-05-26T10:51:19.251Z,7.30
2018-05-26T10:52:22.596Z,6.20
2018-05-26T10:53:25.895Z,9.20
2018-05-26T10:54:29.471Z,6.27
2018-05-26T10:55:32.853Z,6.70
2018-05-26T10:56:36.163Z,5.50
2018-05-26T10:57:39.463Z,5.80
2018-05-26T10:58:42.765Z,9.67
2018-05-26T10:59:46.071Z,7.43
2018-05-26T11:00:49.419Z,6.30
2018-05-26T11:01:52.727Z,6.30
2018-05-26T11:02:56.034Z,5.90
2018-05-26T11:03:59.374Z,6.10
2018-05-26T11:05:02.769Z,5.63
2018-05-26T11:06:06.442Z,9.47
2018-05-26T11:07:09.751Z,5.43
2018-05-26T11:08:13.066Z,6.10
2018-05-26T11:09:16.397Z,5.93
2018-05-26T11:10:19.726Z,7.10
2018-05-26T11:11:23.062Z,7.93
2018-05-26T11:12:26.379Z,8.43
2018-05-26T11:13:29.743Z,9.57
2018-05-26T11:14:33.134Z,5.87
2018-05-26T11:15:36.484Z,6.30
2018-05-26T11:16:39.833Z,11.20
2018-05-26T11:17:43.426Z,6.50
2018-05-26T11:18:46.532Z,5.83
2018-05-26T11:19:49.839Z,6.97
2018-05-26T11:20:53.195Z,6.20
2018-05-26T11:21:56.545Z,5.90
2018-05-26T11:22:59.851Z,6.30
2018-05-26T11:24:03.384Z,9.40
2018-05-26T11:25:06.503Z,5.90
2018-05-26T11:26:09.832Z,6.00
2018-05-26T11:27:13.179Z,6.60
2018-05-26T11:28:16.826Z,5.73
2018-05-26T11:29:20.138Z,6.23
2018-05-26T11:30:23.455Z,6.57
2018-05-26T11:31:26.754Z,5.77
2018-05-26T11:32:30.092Z,6.80
2018-05-26T11:33:33.419Z,5.83
2018-05-26T11:34:36.730Z,6.27
2018-05-26T11:35:40.043Z,6.63
2018-05-26T11:36:43.341Z,6.57
2018-05-26T11:37:46.684Z,5.80
2018-05-26T11:38:49.993Z,6.47
2018-05-26T11:39:53.322Z,5.87
2018-05-26T11:40:56.627Z,5.90
2018-05-26T11:41:59.933Z,6.70
2018-05-26T11:43:03.467Z,7.30
2018-05-26T11:44:06.763Z,5.80
2018-05-26T11:45:10.107Z,6.50
2018-05-26T11:46:13.417Z,6.57
2018-05-26T11:47:16.746Z,7.07
2018-05-26T11:48:20.308Z,6.97
2018-05-26T11:49:23.604Z,5.63
2018-05-26T11:50:26.908Z,6.13
2018-05-26T11:51:30.228Z,7.20
2018-05-26T11:52:33.567Z,6.93
2018-05-26T11:53:36.875Z,5.83
2018-05-26T11:54:40.256Z,6.83
2018-05-26T11:55:43.639Z,7.67
2018-05-26T11:56:46.961Z,6.60
2018-05-26T11:57:50.286Z,6.53
2018-05-26T11:58:53.606Z,6.10
2018-05-26T11:59:56.942Z,6.03
2018-05-26T12:01:00.243Z,5.90
2018-05-26T12:02:03.611Z,6.90
2018-05-26T12:03:06.990Z,6.20
2018-05-26T12:04:10.319Z,6.73
2018-05-26T12:05:13.623Z,7.33
2018-05-26T12:06:16.922Z,6.03
2018-05-26T12:07:20.256Z,8.50
2018-05-26T12:08:23.558Z,6.30
2018-05-26T12:09:27.002Z,6.90
2018-05-26T12:10:30.310Z,6.67
2018-05-26T12:11:33.615Z,5.87
2018-05-26T12:12:36.953Z,7.37
2018-05-26T12:13:40.294Z,5.77
2018-05-26T12:14:43.907Z,5.10
2018-05-26T12:15:47.219Z,5.10
2018-05-26T12:16:50.543Z,5.87
2018-05-26T12:17:53.850Z,5.50
2018-05-26T12:18:57.170Z,5.83
2018-05-26T12:20:00.535Z,6.07
2018-05-26T12:21:03.837Z,5.67
2018-05-26T12:22:07.169Z,6.83
2018-05-26T12:23:10.504Z,5.43
2018-05-26T12:24:13.850Z,7.23
2018-05-26T12:25:17.189Z,5.90
2018-05-26T12:26:20.533Z,4.93
2018-05-26T12:27:23.853Z,6.80
2018-05-26T12:28:27.164Z,5.83
2018-05-26T12:29:30.461Z,6.20
2018-05-26T12:30:33.820Z,7.40
2018-05-26T12:31:37.110Z,5.70
2018-05-26T12:32:40.476Z,5.63
2018-05-26T12:33:43.793Z,7.27
2018-05-26T12:34:47.088Z,5.63
2018-05-26T12:35:50.474Z,5.77
2018-05-26T12:36:53.757Z,5.77
2018-05-26T12:37:57.079Z,5.93
2018-05-26T12:39:00.607Z,10.50
2018-05-26T12:40:04.016Z,5.73
2018-05-26T12:41:07.393Z,6.50
2018-05-26T12:42:10.715Z,6.47
2018-05-26T12:43:14.140Z,7.37
2018-05-26T12:44:17.475Z,7.33
2018-05-26T12:45:20.840Z,9.50
2018-05-26T12:46:24.334Z,5.93
2018-05-26T12:47:27.679Z,5.90
2018-05-26T12:48:30.987Z,5.90
2018-05-26T12:49:34.300Z,6.67
2018-05-26T12:50:37.637Z,7.97
2018-05-26T12:51:40.994Z,11.07
2018-05-26T12:52:44.317Z,6.57
2018-05-26T12:53:47.665Z,5.83
2018-05-26T12:54:50.999Z,6.50
2018-05-26T12:55:54.306Z,6.17
2018-05-26T12:56:57.747Z,6.87
2018-05-26T12:58:01.067Z,9.07
2018-05-26T12:59:04.358Z,8.73
2018-05-26T13:00:07.702Z,5.90
2018-05-26T13:01:11.001Z,5.80
2018-05-26T13:02:14.323Z,5.53
2018-05-26T13:03:17.652Z,7.30
2018-05-26T13:04:20.983Z,6.20
2018-05-26T13:05:24.303Z,5.00
2018-05-26T13:06:27.611Z,5.60
2018-05-26T13:07:31.247Z,24.47
2018-05-26T13:08:34.574Z,5.23
2018-05-26T13:09:37.898Z,5.07
2018-05-26T13:10:41.214Z,8.80
2018-05-26T13:11:44.511Z,4.90
2018-05-26T13:12:47.849Z,5.67
2018-05-26T13:13:51.203Z,5.43
2018-05-26T13:14:54.501Z,6.60
2018-05-26T13:15:57.830Z,6.20
2018-05-26T13:17:01.222Z,7.10
2018-05-26T13:18:04.561Z,6.37
2018-05-26T13:19:07.886Z,6.30
2018-05-26T13:20:11.192Z,6.17
2018-05-26T13:22:24.184Z,6.43
2018-05-26T13:23:27.522Z,5.73
2018-05-26T13:24:30.822Z,5.50
2018-05-26T13:25:34.143Z,5.43
2018-05-26T13:26:37.459Z,4.90
2018-05-26T13:27:40.792Z,8.03
2018-05-26T13:28:44.139Z,5.90
2018-05-26T13:29:47.498Z,4.93
2018-05-26T13:30:50.791Z,5.27
2018-05-26T13:31:54.122Z,5.73
2018-05-26T13:32:57.440Z,5.63
2018-05-26T13:34:00.766Z,5.80
2018-05-26T13:35:04.070Z,6.03
2018-05-26T13:36:07.390Z,5.50
2018-05-26T13:37:10.719Z,5.60
2018-05-26T13:38:14.028Z,5.10
2018-05-26T13:39:17.387Z,5.00
2018-05-26T13:40:20.704Z,5.23
2018-05-26T13:42:33.658Z,6.20
2018-05-26T13:43:37.278Z,5.20
2018-05-26T13:44:40.635Z,9.70
2018-05-26T13:45:43.942Z,5.60
2018-05-26T13:46:47.263Z,6.30
2018-05-26T13:47:50.602Z,6.33
2018-05-26T13:48:53.909Z,7.20
2018-05-26T13:49:57.244Z,5.97
2018-05-26T13:51:00.580Z,6.00
2018-05-26T13:52:03.893Z,5.70
2018-05-26T13:53:07.337Z,6.00
2018-05-26T13:54:10.536Z,7.17
2018-05-26T13:55:13.950Z,5.57